Time;durP1;ratioP1;P1;durP2;ratioP2;P2;SDS_P1;SDS_P2;PMS_P1;PMS_P2;Temp;Humidity;BMP_temperature;BMP_pressure;BME280_temperature;BME280_humidity;BME280_pressure;Samples;Min_cycle;Max_cycle;Signal;HPM_P1;HPM_P2
2024/01/25 00:02:08;;;;;;;20.10;2.63;;;8.30;99.90;;;;;;5112241;28;20052;-54
2024/01/25 00:04:34;;;;;;;23.38;4.00;;;8.30;99.90;;;;;;5115248;28;20027;-55
2024/01/25 00:07:00;;;;;;;21.98;3.70;;;8.20;99.90;;;;;;5108809;28;20023;-55
2024/01/25 00:09:25;;;;;;;24.23;2.55;;;8.20;99.90;;;;;;5107066;28;20384;-55
2024/01/25 00:11:51;;;;;;;29.98;2.67;;;8.20;99.90;;;;;;5095829;28;20392;-60
2024/01/25 00:14:16;;;;;;;40.10;4.18;;;8.20;99.90;;;;;;5095665;28;20034;-56
2024/01/25 00:16:42;;;;;;;16.35;2.35;;;8.20;99.90;;;;;;5095472;28;20048;-55
2024/01/25 00:19:08;;;;;;;38.03;3.58;;;8.20;99.90;;;;;;5095515;28;20362;-55
2024/01/25 00:21:34;;;;;;;26.90;4.05;;;8.20;99.90;;;;;;5095655;28;20032;-56
2024/01/25 00:24:00;;;;;;;31.95;3.92;;;8.20;99.90;;;;;;5094254;28;20030;-56
2024/01/25 00:26:25;;;;;;;26.73;2.83;;;8.20;99.90;;;;;;5095575;28;20388;-56
2024/01/25 00:28:51;;;;;;;14.80;3.38;;;8.10;99.90;;;;;;5095731;28;20040;-70
2024/01/25 00:31:17;;;;;;;35.05;4.43;;;8.10;99.90;;;;;;5095385;28;20103;-53
2024/01/25 00:33:42;;;;;;;25.05;4.05;;;8.10;99.90;;;;;;5095302;28;20118;-55
2024/01/25 00:36:09;;;;;;;23.30;2.75;;;8.00;99.90;;;;;;5095668;28;20457;-56
2024/01/25 00:38:35;;;;;;;30.13;3.55;;;8.00;99.90;;;;;;5095179;28;20039;-55
2024/01/25 00:41:01;;;;;;;19.13;2.80;;;8.00;99.90;;;;;;5095384;28;20028;-40
2024/01/25 00:43:27;;;;;;;21.52;2.95;;;8.00;99.90;;;;;;5094296;28;20520;-42
2024/01/25 00:45:52;;;;;;;24.48;3.33;;;8.00;99.90;;;;;;5095098;28;20071;-43
2024/01/25 00:48:18;;;;;;;24.85;4.43;;;7.90;99.90;;;;;;5095349;28;20103;-41
2024/01/25 00:50:44;;;;;;;13.32;2.72;;;7.90;99.90;;;;;;5095159;28;20031;-43
2024/01/25 00:53:11;;;;;;;23.10;4.03;;;7.90;99.90;;;;;;5094977;28;20027;-66
2024/01/25 00:55:36;;;;;;;20.08;3.08;;;7.90;99.90;;;;;;5094799;28;20535;-40
2024/01/25 00:58:02;;;;;;;21.98;2.97;;;7.90;99.90;;;;;;5095199;28;20103;-40
2024/01/25 01:00:28;;;;;;;25.83;3.22;;;8.00;99.90;;;;;;5102909;28;20028;-56
2024/01/25 01:02:57;;;;;;;36.47;3.33;;;7.90;99.90;;;;;;5111405;28;20024;-54
2024/01/25 01:05:23;;;;;;;33.28;3.80;;;7.90;99.90;;;;;;5094860;28;20028;-53
2024/01/25 01:07:49;;;;;;;14.32;3.47;;;7.90;99.90;;;;;;5113260;28;20042;-55
2024/01/25 01:10:15;;;;;;;22.10;2.58;;;7.90;99.90;;;;;;5094623;28;20027;-55
2024/01/25 01:12:41;;;;;;;22.80;3.38;;;7.90;99.90;;;;;;5094538;28;20500;-54
2024/01/25 01:15:06;;;;;;;17.67;3.42;;;7.90;99.90;;;;;;5094464;28;20075;-54
2024/01/25 01:17:32;;;;;;;20.83;3.22;;;7.80;99.90;;;;;;5093373;28;20457;-55
2024/01/25 01:19:58;;;;;;;25.20;3.70;;;7.80;99.90;;;;;;5094981;28;20032;-41
2024/01/25 01:22:23;;;;;;;31.02;3.38;;;7.80;99.90;;;;;;5094483;28;20412;-41
2024/01/25 01:24:49;;;;;;;15.02;2.47;;;7.80;99.90;;;;;;5094171;28;20584;-39
2024/01/25 01:27:15;;;;;;;22.90;3.00;;;7.70;99.90;;;;;;5093162;28;20047;-40
2024/01/25 01:29:41;;;;;;;12.65;2.78;;;7.70;99.90;;;;;;5094233;28;20067;-40
2024/01/25 01:32:06;;;;;;;32.55;4.47;;;7.70;99.90;;;;;;5094138;28;20083;-44
2024/01/25 01:34:32;;;;;;;21.30;3.80;;;7.60;99.90;;;;;;5094283;28;20028;-43
2024/01/25 01:36:58;;;;;;;26.48;3.40;;;7.70;99.90;;;;;;5094172;28;20028;-70
2024/01/25 01:39:25;;;;;;;25.63;5.18;;;7.60;99.90;;;;;;5092727;28;20098;-40
2024/01/25 01:41:50;;;;;;;21.05;3.15;;;7.60;99.90;;;;;;5093981;28;20051;-40
2024/01/25 01:44:16;;;;;;;24.02;3.30;;;7.60;99.90;;;;;;5092801;28;20460;-42
2024/01/25 01:46:42;;;;;;;22.73;2.45;;;7.60;99.90;;;;;;5097896;28;20027;-42
2024/01/25 01:49:13;;;;;;;15.88;3.20;;;7.50;99.90;;;;;;5114538;28;20468;-40
2024/01/25 01:51:42;;;;;;;33.10;3.90;;;7.50;99.90;;;;;;5114372;28;20027;-56
2024/01/25 01:54:09;;;;;;;19.77;2.75;;;7.50;99.90;;;;;;5112061;28;20027;-55
2024/01/25 01:56:36;;;;;;;24.33;3.78;;;7.40;99.90;;;;;;5093812;28;20068;-55
2024/01/25 01:59:04;;;;;;;28.03;3.27;;;7.40;99.90;;;;;;5099377;28;20088;-52
2024/01/25 02:01:30;;;;;;;;;;;7.40;99.90;;;;;;5095212;28;20028;-54
2024/01/25 02:03:56;;;;;;;33.05;3.55;;;7.40;99.90;;;;;;5113183;27;19969;-55
2024/01/25 02:06:23;;;;;;;9.63;1.95;;;7.50;99.90;;;;;;5113018;28;20479;-39
2024/01/25 02:08:53;;;;;;;28.23;4.15;;;7.40;99.90;;;;;;5113852;28;20042;-39
2024/01/25 02:11:19;;;;;;;22.83;3.53;;;7.50;99.90;;;;;;5095974;28;20484;-39
2024/01/25 02:13:45;;;;;;;25.15;3.17;;;7.40;99.90;;;;;;5092334;28;20027;-40
2024/01/25 02:16:11;;;;;;;22.40;3.72;;;7.40;99.90;;;;;;5111314;28;20052;-40
2024/01/25 02:18:37;;;;;;;15.02;4.10;;;7.40;99.90;;;;;;5112379;28;20426;-40
2024/01/25 02:21:03;;;;;;;25.60;3.47;;;7.40;99.90;;;;;;5112215;28;20051;-46
2024/01/25 02:23:29;;;;;;;16.65;2.53;;;7.40;99.90;;;;;;5093327;28;20054;-38
2024/01/25 02:25:55;;;;;;;26.20;4.05;;;7.40;99.90;;;;;;5092066;28;20036;-44
2024/01/25 02:28:21;;;;;;;29.60;3.60;;;7.40;99.90;;;;;;5093517;28;20028;-40
2024/01/25 02:30:46;;;;;;;23.50;2.60;;;7.40;99.90;;;;;;5092247;28;20379;-39
2024/01/25 02:33:12;;;;;;;16.42;3.40;;;7.30;99.90;;;;;;5096075;28;20030;-41
2024/01/25 02:35:38;;;;;;;24.92;3.22;;;7.40;99.90;;;;;;5107037;28;20058;-40
2024/01/25 02:38:04;;;;;;;15.43;2.50;;;7.30;99.90;;;;;;5093189;28;20396;-40
2024/01/25 02:40:30;;;;;;;25.88;3.63;;;7.30;99.90;;;;;;5092960;28;20032;-40
2024/01/25 02:42:56;;;;;;;16.30;3.17;;;7.30;99.90;;;;;;5093336;28;20484;-41
2024/01/25 02:45:22;;;;;;;19.73;3.17;;;7.30;99.90;;;;;;5093281;28;20495;-41
2024/01/25 02:47:48;;;;;;;20.70;2.13;;;7.30;99.90;;;;;;5092985;28;20093;-41
2024/01/25 02:50:14;;;;;;;18.58;3.40;;;7.30;99.90;;;;;;5092858;28;20058;-40
2024/01/25 02:52:40;;;;;;;30.23;3.25;;;7.30;99.90;;;;;;5091496;28;20500;-40
2024/01/25 02:55:05;;;;;;;19.38;3.38;;;7.20;99.90;;;;;;5112813;28;20030;-39
2024/01/25 02:57:31;;;;;;;17.67;3.10;;;7.20;99.90;;;;;;5113558;28;20365;-40
2024/01/25 02:59:57;;;;;;;15.43;2.42;;;7.20;99.90;;;;;;5091594;28;20024;-40
2024/01/25 03:02:23;;;;;;;30.35;3.72;;;7.20;99.90;;;;;;5092720;28;20024;-40
2024/01/25 03:04:49;;;;;;;23.42;2.75;;;7.20;99.90;;;;;;5093044;28;20074;-40
2024/01/25 03:07:15;;;;;;;24.42;3.05;;;7.20;99.90;;;;;;5092830;28;20016;-41
2024/01/25 03:09:40;;;;;;;39.47;4.32;;;7.20;99.90;;;;;;5092742;28;20024;-41
2024/01/25 03:12:06;;;;;;;22.80;2.72;;;7.20;99.90;;;;;;5094246;28;20598;-40
2024/01/25 03:14:32;;;;;;;20.75;3.92;;;7.20;99.90;;;;;;5112255;28;20168;-39
2024/01/25 03:16:58;;;;;;;11.50;2.63;;;7.20;99.90;;;;;;5110513;28;20119;-39
2024/01/25 03:19:27;;;;;;;15.75;3.97;;;7.10;99.90;;;;;;5096823;28;20128;-39
2024/01/25 03:21:54;;;;;;;23.58;3.00;;;7.10;99.90;;;;;;5096954;28;20513;-46
2024/01/25 03:24:24;;;;;;;19.25;3.60;;;7.20;99.90;;;;;;5096805;28;20500;-40
2024/01/25 03:26:49;;;;;;;18.23;2.08;;;7.10;99.90;;;;;;5095338;28;20035;-45
2024/01/25 03:29:15;;;;;;;17.75;2.80;;;7.10;99.90;;;;;;5096669;28;20031;-39
2024/01/25 03:31:41;;;;;;;34.13;3.15;;;7.00;99.90;;;;;;5105090;28;20027;-38
2024/01/25 03:34:07;;;;;;;14.43;2.50;;;7.00;99.90;;;;;;5117059;28;20035;-38
2024/01/25 03:36:33;;;;;;;24.02;4.00;;;7.00;99.90;;;;;;5116962;28;20391;-38
2024/01/25 03:38:58;;;;;;;28.27;3.47;;;7.00;99.90;;;;;;5115108;27;20041;-41
2024/01/25 03:41:24;;;;;;;13.25;3.00;;;6.90;99.90;;;;;;5116877;28;20027;-39
2024/01/25 03:43:51;;;;;;;23.08;2.88;;;6.90;99.90;;;;;;5116866;28;20099;-41
2024/01/25 03:46:17;;;;;;;21.08;2.88;;;6.90;99.90;;;;;;5112044;28;20016;-39
2024/01/25 03:48:42;;;;;;;21.20;3.55;;;6.90;99.90;;;;;;5096193;28;20035;-39
2024/01/25 03:51:08;;;;;;;25.55;2.88;;;6.80;99.90;;;;;;5096290;28;20305;-43
2024/01/25 03:53:34;;;;;;;19.00;2.35;;;6.80;99.90;;;;;;5096489;28;20483;-44
2024/01/25 03:56:00;;;;;;;17.45;2.72;;;6.80;99.90;;;;;;5096156;28;20056;-40
2024/01/25 03:58:26;;;;;;;16.67;2.53;;;6.70;99.90;;;;;;5097745;28;20369;-40
2024/01/25 04:00:51;;;;;;;22.77;2.97;;;6.70;99.90;;;;;;5116489;28;20019;-41
2024/01/25 04:03:17;;;;;;;14.65;2.58;;;6.60;99.90;;;;;;5114727;28;20422;-40
2024/01/25 04:05:43;;;;;;;13.43;2.45;;;6.60;99.90;;;;;;5109187;28;20404;-39
2024/01/25 04:08:09;;;;;;;23.30;2.97;;;6.50;99.90;;;;;;5096806;28;20464;-66
2024/01/25 04:10:34;;;;;;;20.83;2.42;;;6.50;99.90;;;;;;5115153;28;20495;-40
2024/01/25 04:13:00;;;;;;;17.77;2.45;;;6.50;99.90;;;;;;5116287;28;20027;-52
2024/01/25 04:15:26;;;;;;;12.23;2.40;;;6.40;99.90;;;;;;5112600;28;20044;-42
2024/01/25 04:17:53;;;;;;;22.10;3.30;;;6.40;99.90;;;;;;5114929;28;20026;-39
2024/01/25 04:20:19;;;;;;;15.20;3.08;;;6.40;99.90;;;;;;5108838;28;20077;-39
2024/01/25 04:22:45;;;;;;;17.33;2.22;;;6.40;99.90;;;;;;5094415;28;20077;-40
2024/01/25 04:25:11;;;;;;;15.18;1.92;;;6.40;99.90;;;;;;5094604;28;20028;-39
2024/01/25 04:27:39;;;;;;;18.05;2.47;;;6.40;99.90;;;;;;5093848;28;20153;-40
2024/01/25 04:30:06;;;;;;;21.48;2.28;;;6.40;99.90;;;;;;5098652;28;20028;-39
2024/01/25 04:32:32;;;;;;;12.43;3.33;;;6.30;99.90;;;;;;5114755;28;20024;-38
2024/01/25 04:34:58;;;;;;;12.13;2.33;;;6.20;99.90;;;;;;5101212;28;20027;-58
2024/01/25 04:37:23;;;;;;;22.58;3.00;;;6.10;99.90;;;;;;5094246;28;20103;-38
2024/01/25 04:39:49;;;;;;;15.68;3.03;;;6.10;99.90;;;;;;5092855;28;20063;-39
2024/01/25 04:42:15;;;;;;;14.93;2.80;;;6.00;99.90;;;;;;5094010;28;20020;-40
2024/01/25 04:44:40;;;;;;;11.85;2.65;;;5.90;99.90;;;;;;5094101;28;20032;-41
2024/01/25 04:47:06;;;;;;;12.27;2.17;;;5.90;99.90;;;;;;5113517;28;20466;-40
2024/01/25 04:49:32;;;;;;;26.27;4.13;;;5.90;99.90;;;;;;5095749;28;20381;-38
2024/01/25 04:51:57;;;;;;;18.77;3.25;;;5.90;99.90;;;;;;5094025;28;20435;-38
2024/01/25 04:54:23;;;;;;;12.30;2.60;;;5.90;99.90;;;;;;5093986;28;20028;-39
2024/01/25 04:56:49;;;;;;;17.80;3.15;;;5.90;99.90;;;;;;5092677;28;20027;-39
2024/01/25 04:59:14;;;;;;;22.52;3.15;;;5.80;99.90;;;;;;5102060;28;20490;-54
2024/01/25 05:01:40;;;;;;;21.45;3.28;;;5.80;99.90;;;;;;5099868;28;20028;-71
2024/01/25 05:04:05;;;;;;;26.27;3.75;;;5.80;99.90;;;;;;5093764;28;20476;-38
2024/01/25 05:06:31;;;;;;;22.35;3.05;;;5.80;99.90;;;;;;5094080;28;20507;-38
2024/01/25 05:08:57;;;;;;;22.63;3.35;;;5.80;99.90;;;;;;5093982;28;20023;-38
2024/01/25 05:11:22;;;;;;;33.60;4.20;;;5.70;99.90;;;;;;5093710;28;20024;-38
2024/01/25 05:13:48;;;;;;;24.63;3.17;;;5.70;99.90;;;;;;5092393;28;20024;-39
2024/01/25 05:16:14;;;;;;;14.02;2.75;;;5.70;99.90;;;;;;5053315;28;1124797;-41
2024/01/25 05:18:39;;;;;;;24.40;3.38;;;5.70;99.90;;;;;;5093505;28;20036;-39
2024/01/25 05:21:06;;;;;;;18.73;2.83;;;5.60;99.90;;;;;;5094680;28;20067;-52
2024/01/25 05:23:31;;;;;;;17.73;3.30;;;5.70;99.90;;;;;;5094651;28;20464;-54
2024/01/25 05:25:57;;;;;;;36.55;3.42;;;5.70;99.90;;;;;;5094472;28;20067;-55
2024/01/25 05:28:24;;;;;;;23.13;2.92;;;5.70;99.90;;;;;;5094355;28;20028;-53
2024/01/25 05:30:50;;;;;;;19.52;3.05;;;5.70;99.90;;;;;;5096347;28;20024;-53
2024/01/25 05:33:15;;;;;;;24.00;2.88;;;5.70;99.90;;;;;;5099055;28;20511;-53
2024/01/25 05:35:41;;;;;;;29.60;4.45;;;5.70;99.90;;;;;;5094178;28;20030;-51
2024/01/25 05:38:07;;;;;;;31.48;3.40;;;5.70;99.90;;;;;;5094181;28;20537;-54
2024/01/25 05:40:32;;;;;;;14.73;2.88;;;5.70;99.90;;;;;;5092114;28;20099;-53
2024/01/25 05:42:59;;;;;;;20.23;2.85;;;5.70;99.90;;;;;;5094085;28;20128;-53
2024/01/25 05:45:26;;;;;;;28.65;3.03;;;5.70;99.90;;;;;;5093936;28;20028;-52
2024/01/25 05:47:52;;;;;;;30.17;3.40;;;5.80;99.90;;;;;;5094967;28;20024;-54
2024/01/25 05:50:18;;;;;;;18.70;2.88;;;5.80;99.90;;;;;;5093837;28;20439;-49
2024/01/25 05:52:43;;;;;;;24.13;3.40;;;5.70;99.90;;;;;;5093918;28;20111;-54
2024/01/25 05:55:09;;;;;;;26.83;2.78;;;5.70;99.90;;;;;;5093855;28;20606;-57
2024/01/25 05:57:36;;;;;;;28.63;4.07;;;5.70;99.90;;;;;;5093846;28;20051;-56
2024/01/25 06:00:02;;;;;;;43.08;5.75;;;5.70;99.90;;;;;;5108555;28;20107;-54
2024/01/25 06:02:28;;;;;;;30.80;5.95;;;5.70;99.90;;;;;;5098698;28;20028;-51
2024/01/25 06:04:54;;;;;;;32.60;5.65;;;5.70;99.90;;;;;;5093660;28;20107;-53
2024/01/25 06:07:20;;;;;;;20.45;5.30;;;5.70;99.90;;;;;;5093465;28;20028;-54
2024/01/25 06:09:46;;;;;;;16.45;4.18;;;5.70;99.90;;;;;;5093635;28;20165;-53
2024/01/25 06:12:11;;;;;;;27.05;5.55;;;5.70;99.90;;;;;;5093534;28;20480;-54
2024/01/25 06:14:37;;;;;;;32.28;4.93;;;5.70;99.90;;;;;;5093368;28;20032;-53
2024/01/25 06:17:03;;;;;;;21.50;5.90;;;5.70;99.90;;;;;;5097021;28;20097;-53
2024/01/25 06:19:29;;;;;;;34.45;5.85;;;5.70;99.90;;;;;;5093389;28;20028;-53
2024/01/25 06:21:55;;;;;;;20.42;5.55;;;5.70;99.90;;;;;;5093390;28;20048;-54
2024/01/25 06:24:20;;;;;;;22.75;5.13;;;5.60;99.90;;;;;;5093144;28;20487;-53
2024/01/25 06:26:46;;;;;;;33.97;5.90;;;5.60;99.90;;;;;;5093184;28;20090;-53
2024/01/25 06:29:11;;;;;;;22.42;4.93;;;5.60;99.90;;;;;;5093234;28;20024;-53
2024/01/25 06:31:43;;;;;;;25.67;5.03;;;5.60;99.90;;;;;;5105069;28;20031;-53
2024/01/25 06:34:08;;;;;;;22.05;3.97;;;5.60;99.90;;;;;;5094846;28;20563;-54
2024/01/25 06:36:34;;;;;;;27.73;4.00;;;5.60;99.90;;;;;;5113505;28;20032;-52
2024/01/25 06:39:00;;;;;;;23.40;4.80;;;5.50;99.90;;;;;;5113701;28;20024;-53
2024/01/25 06:41:25;;;;;;;27.58;5.03;;;5.60;99.90;;;;;;5099412;28;20024;-59
2024/01/25 06:43:51;;;;;;;21.95;5.38;;;5.60;99.90;;;;;;5093078;28;20407;-52
2024/01/25 06:46:17;;;;;;;36.60;4.95;;;5.60;99.90;;;;;;5099813;28;20031;-56
2024/01/25 06:48:43;;;;;;;22.65;4.60;;;5.60;99.90;;;;;;5113321;28;20028;-51
2024/01/25 06:51:09;;;;;;;24.17;4.50;;;5.70;99.90;;;;;;5095891;28;20039;-58
2024/01/25 06:53:35;;;;;;;19.10;4.03;;;5.60;99.90;;;;;;5092940;28;20053;-53
2024/01/25 06:56:00;;;;;;;14.77;4.15;;;5.60;99.90;;;;;;5092676;28;20028;-52
2024/01/25 06:58:26;;;;;;;19.75;4.13;;;5.50;99.90;;;;;;5095196;28;20040;-54
2024/01/25 07:00:52;;;;;;;20.50;4.47;;;5.50;99.90;;;;;;5094471;28;21598;-52
2024/01/25 07:03:18;;;;;;;24.08;3.63;;;5.50;99.90;;;;;;5113190;28;20024;-54
2024/01/25 07:05:44;;;;;;;26.67;3.88;;;5.50;99.90;;;;;;5111496;28;20047;-52
2024/01/25 07:08:13;;;;;;;15.73;2.83;;;5.50;99.90;;;;;;5113152;28;20024;-53
2024/01/25 07:10:39;;;;;;;22.00;3.55;;;5.50;99.90;;;;;;5113088;28;20028;-54
2024/01/25 07:13:05;;;;;;;17.38;4.05;;;5.50;99.90;;;;;;5110395;28;20028;-53
2024/01/25 07:15:31;;;;;;;21.27;3.72;;;5.50;99.90;;;;;;5091364;28;20487;-54
2024/01/25 07:17:56;;;;;;;16.25;3.15;;;5.50;99.90;;;;;;5092594;28;20034;-54
2024/01/25 07:20:22;;;;;;;15.20;2.92;;;5.50;99.90;;;;;;5092532;28;20024;-56
2024/01/25 07:22:48;;;;;;;11.98;3.10;;;5.50;99.90;;;;;;5092535;28;20021;-56
2024/01/25 07:25:14;;;;;;;20.92;3.40;;;5.40;99.90;;;;;;5092663;28;20020;-56
2024/01/25 07:27:39;;;;;;;22.75;3.22;;;5.50;99.90;;;;;;5092796;28;20372;-56
2024/01/25 07:30:07;;;;;;;25.90;3.55;;;5.60;99.90;;;;;;5092466;28;20037;-54
2024/01/25 07:32:35;;;;;;;;;;;5.60;99.90;;;;;;5094077;28;20345;-52
2024/01/25 07:35:01;;;;;;;25.67;3.15;;;5.60;99.90;;;;;;5098699;28;20010;-50
2024/01/25 07:37:27;;;;;;;18.40;2.53;;;5.70;99.90;;;;;;5102038;28;20105;-58
2024/01/25 07:39:52;;;;;;;21.45;2.92;;;5.70;99.90;;;;;;5091086;28;20400;-57
2024/01/25 07:42:18;;;;;;;24.35;3.63;;;5.70;99.90;;;;;;5092504;28;20016;-42
2024/01/25 07:44:44;;;;;;;15.25;3.20;;;5.80;99.90;;;;;;5095066;28;20110;-44
2024/01/25 07:47:10;;;;;;;26.55;3.83;;;5.70;99.90;;;;;;5092311;28;20569;-38
2024/01/25 07:49:35;;;;;;;21.38;2.83;;;5.80;99.90;;;;;;5092317;28;20024;-38
2024/01/25 07:52:01;;;;;;;26.77;3.83;;;5.80;99.90;;;;;;5092207;28;20031;-41
2024/01/25 07:54:26;;;;;;;22.70;3.70;;;5.80;99.90;;;;;;5092350;28;20032;-40
2024/01/25 07:56:52;;;;;;;24.17;3.70;;;5.80;99.90;;;;;;5101883;28;20433;-41
2024/01/25 07:59:18;;;;;;;22.65;3.55;;;5.90;99.90;;;;;;5103861;28;20024;-40
2024/01/25 08:01:43;;;;;;;31.42;3.72;;;5.90;99.90;;;;;;5109314;28;20073;-39
2024/01/25 08:04:09;;;;;;;23.20;3.58;;;5.90;99.90;;;;;;5097012;28;20350;-39
2024/01/25 08:06:35;;;;;;;24.17;3.05;;;5.90;99.90;;;;;;5116424;28;20020;-48
2024/01/25 08:09:00;;;;;;;17.92;3.17;;;6.00;99.90;;;;;;5116633;28;20464;-38
2024/01/25 08:11:26;;;;;;;18.95;3.38;;;5.90;99.90;;;;;;5095697;28;20028;-38
2024/01/25 08:13:52;;;;;;;28.52;4.05;;;5.90;99.90;;;;;;5108834;28;20031;-42
2024/01/25 08:16:20;;;;;;;14.05;3.47;;;5.90;99.90;;;;;;5102558;28;20043;-59
2024/01/25 08:18:47;;;;;;;19.73;3.03;;;6.00;99.90;;;;;;5095497;28;20107;-40
2024/01/25 08:21:12;;;;;;;16.65;3.25;;;6.00;99.90;;;;;;5095920;28;20453;-40
2024/01/25 08:23:39;;;;;;;22.58;3.28;;;6.10;99.90;;;;;;5095681;28;20021;-38
2024/01/25 08:26:05;;;;;;;16.33;2.80;;;6.10;99.90;;;;;;5101525;28;20012;-40
2024/01/25 08:28:31;;;;;;;28.75;4.28;;;6.10;99.90;;;;;;5096610;28;20028;-42
2024/01/25 08:30:57;;;;;;;21.25;3.38;;;6.10;99.90;;;;;;5115928;28;20022;-39
2024/01/25 08:33:24;;;;;;;22.48;4.35;;;6.20;99.90;;;;;;5114576;28;20019;-40
2024/01/25 08:35:50;;;;;;;28.88;5.75;;;6.20;99.90;;;;;;5115822;28;20027;-39
2024/01/25 08:38:15;;;;;;;20.73;3.10;;;6.10;99.90;;;;;;5113787;28;20422;-71
2024/01/25 08:40:41;;;;;;;21.08;4.25;;;6.10;99.90;;;;;;5115641;28;20028;-40
2024/01/25 08:43:07;;;;;;;22.27;3.40;;;6.10;99.90;;;;;;5115909;28;20517;-38
2024/01/25 08:45:33;;;;;;;17.20;3.70;;;6.10;99.90;;;;;;5113882;28;20107;-38
2024/01/25 08:47:59;;;;;;;32.08;4.15;;;6.20;99.90;;;;;;5115562;28;20027;-39
2024/01/25 08:50:25;;;;;;;19.95;3.63;;;6.30;99.90;;;;;;5100593;28;20403;-40
2024/01/25 08:52:51;;;;;;;27.67;3.15;;;6.40;99.90;;;;;;5102219;28;20036;-40
2024/01/25 08:55:17;;;;;;;29.17;4.20;;;6.50;99.90;;;;;;5095074;28;20031;-39
2024/01/25 08:57:42;;;;;;;13.82;3.42;;;6.50;99.90;;;;;;5094919;28;20476;-38
2024/01/25 09:00:12;;;;;;;21.20;4.47;;;6.50;99.90;;;;;;5110050;28;20073;-40
2024/01/25 09:02:38;;;;;;;20.90;3.28;;;6.60;99.90;;;;;;5106741;28;20494;-38
2024/01/25 09:05:05;;;;;;;23.80;3.42;;;6.60;99.90;;;;;;5113998;28;20027;-40
2024/01/25 09:07:31;;;;;;;24.95;4.13;;;6.70;99.90;;;;;;5104581;28;20028;-38
2024/01/25 09:09:56;;;;;;;17.63;4.13;;;6.80;99.90;;;;;;5094741;28;20103;-37
2024/01/25 09:12:22;;;;;;;19.80;3.55;;;6.90;99.90;;;;;;5094536;28;20032;-38
2024/01/25 09:14:47;;;;;;;18.90;4.13;;;7.00;99.90;;;;;;5096877;28;20028;-37
2024/01/25 09:17:21;;;;;;;33.75;4.30;;;7.10;99.90;;;;;;5113328;28;20047;-37
2024/01/25 09:19:48;;;;;;;19.48;4.10;;;7.30;99.90;;;;;;5114993;28;20531;-40
2024/01/25 09:22:16;;;;;;;19.10;4.35;;;7.30;99.90;;;;;;5115177;28;20410;-38
2024/01/25 09:24:41;;;;;;;10.90;2.80;;;7.30;99.90;;;;;;5112893;28;20416;-41
2024/01/25 09:27:07;;;;;;;32.33;3.97;;;7.40;99.90;;;;;;5109800;28;20023;-39
2024/01/25 09:29:33;;;;;;;22.30;3.40;;;7.50;99.90;;;;;;5094261;28;20322;-39
2024/01/25 09:31:59;;;;;;;24.42;3.58;;;7.50;99.90;;;;;;5094279;28;20031;-38
2024/01/25 09:34:25;;;;;;;28.35;3.70;;;7.50;99.90;;;;;;5094323;28;20053;-41
2024/01/25 09:36:51;;;;;;;23.60;4.53;;;7.60;99.90;;;;;;5094280;28;20415;-47
2024/01/25 09:39:17;;;;;;;20.45;3.35;;;7.60;99.90;;;;;;5094153;28;20028;-50
2024/01/25 09:41:43;;;;;;;14.75;2.83;;;7.60;99.90;;;;;;5108138;28;20027;-40
2024/01/25 09:44:09;;;;;;;19.65;3.38;;;7.70;99.90;;;;;;5097432;28;20412;-39
2024/01/25 09:46:35;;;;;;;25.73;3.60;;;7.80;99.90;;;;;;5114729;28;20480;-38
2024/01/25 09:49:02;;;;;;;19.60;3.13;;;7.80;99.90;;;;;;5112243;27;20051;-39
2024/01/25 09:51:41;;;;;;;15.10;3.22;;;7.90;99.90;;;;;;5110554;28;20468;-39
2024/01/25 09:54:07;;;;;;;16.63;3.28;;;7.90;99.90;;;;;;5094002;28;20024;-38
2024/01/25 09:56:33;;;;;;;21.63;3.90;;;8.00;99.90;;;;;;5093561;28;20030;-40
2024/01/25 09:59:00;;;;;;;17.38;3.47;;;8.10;99.90;;;;;;5100016;28;20027;-39
2024/01/25 10:01:25;;;;;;;22.38;4.30;;;8.20;99.90;;;;;;5095854;28;20066;-39
2024/01/25 10:03:51;;;;;;;23.50;5.13;;;8.20;99.90;;;;;;5093647;28;20059;-38
2024/01/25 10:06:17;;;;;;;22.98;4.20;;;8.20;99.90;;;;;;5098881;28;20020;-40
2024/01/25 10:08:43;;;;;;;29.92;3.88;;;8.30;99.90;;;;;;5114278;28;20528;-39
2024/01/25 10:11:11;;;;;;;41.55;7.53;;;8.30;99.90;;;;;;5112223;28;20024;-38
2024/01/25 10:13:50;;;;;;;30.02;4.85;;;8.30;99.90;;;;;;5102288;28;20530;-38
2024/01/25 10:16:19;;;;;;;26.63;5.13;;;8.40;99.90;;;;;;5113732;27;20537;-38
2024/01/25 10:18:49;;;;;;;33.58;3.95;;;8.50;99.90;;;;;;5111971;28;20027;-39
2024/01/25 10:21:15;;;;;;;20.50;4.93;;;8.60;99.90;;;;;;5098220;28;20073;-39
2024/01/25 10:23:44;;;;;;;20.45;3.92;;;8.60;99.90;;;;;;5093366;28;20549;-39
2024/01/25 10:26:10;;;;;;;25.83;3.95;;;8.70;99.90;;;;;;5092783;28;20491;-40
2024/01/25 10:28:36;;;;;;;26.98;5.03;;;8.70;99.90;;;;;;5093042;28;20104;-40
2024/01/25 10:31:04;;;;;;;20.95;4.22;;;8.70;99.90;;;;;;5099397;28;20064;-40
2024/01/25 10:33:30;;;;;;;38.58;4.50;;;8.70;99.90;;;;;;5100978;28;20020;-38
2024/01/25 10:36:03;;;;;;;26.67;3.72;;;8.70;99.90;;;;;;5104543;28;20031;-40
2024/01/25 10:38:34;;;;;;;38.45;4.90;;;8.80;99.90;;;;;;5109812;28;20040;-40
2024/01/25 10:41:05;;;;;;;27.38;4.53;;;8.80;99.90;;;;;;5093148;28;20060;-38
2024/01/25 10:43:32;;;;;;;19.20;3.85;;;8.80;99.90;;;;;;5092987;28;20024;-39
2024/01/25 10:45:58;;;;;;;20.13;3.97;;;8.90;99.90;;;;;;5093011;28;20418;-40
2024/01/25 10:48:25;;;;;;;35.75;5.63;;;8.90;99.90;;;;;;5097524;28;20503;-40
2024/01/25 10:50:59;;;;;;;39.07;5.03;;;8.90;99.90;;;;;;5109450;28;20472;-39
2024/01/25 10:53:28;;;;;;;18.15;5.65;;;9.00;99.90;;;;;;5093317;28;20580;-38
2024/01/25 10:55:53;;;;;;;31.10;4.13;;;9.00;99.90;;;;;;5093216;28;20483;-39
2024/01/25 10:58:20;;;;;;;27.98;5.38;;;9.10;99.90;;;;;;5097011;28;20023;-64
2024/01/25 11:01:00;;;;;;;25.67;3.80;;;9.10;99.90;;;;;;5095831;28;20024;-39
2024/01/25 11:03:27;;;;;;;15.30;4.53;;;9.10;99.90;;;;;;5099734;28;20055;-65
2024/01/25 11:05:56;;;;;;;23.50;3.80;;;9.20;99.90;;;;;;5093202;28;20428;-40
2024/01/25 11:08:21;;;;;;;25.52;3.95;;;9.20;99.90;;;;;;5094505;28;20273;-39
2024/01/25 11:10:51;;;;;;;31.58;5.20;;;9.20;99.90;;;;;;5091488;28;20020;-40
2024/01/25 11:13:23;;;;;;;31.80;5.20;;;9.20;99.90;;;;;;5112132;28;20080;-54
2024/01/25 11:15:48;;;;;;;24.60;5.30;;;9.20;99.90;;;;;;5097433;28;20556;-55
2024/01/25 11:18:14;;;;;;;27.70;5.68;;;9.30;99.90;;;;;;5101610;28;20103;-55
2024/01/25 11:20:41;;;;;;;22.92;4.50;;;9.40;99.90;;;;;;5111266;28;20040;-56
2024/01/25 11:23:09;;;;;;;19.58;3.80;;;9.40;99.90;;;;;;5113109;28;20487;-54
2024/01/25 11:25:37;;;;;;;21.85;4.93;;;9.30;99.90;;;;;;5095954;28;20020;-56
2024/01/25 11:28:03;;;;;;;;;;;9.30;99.90;;;;;;5106587;28;20468;-54
2024/01/25 11:30:33;;;;;;;31.60;6.70;;;9.30;99.90;;;;;;5113022;28;20375;-56
2024/01/25 11:33:00;;;;;;;24.85;4.47;;;9.30;99.90;;;;;;5103449;28;20085;-53
2024/01/25 11:35:26;;;;;;;22.77;5.45;;;9.40;99.90;;;;;;5092512;28;20485;-55
2024/01/25 11:37:52;;;;;;;18.48;4.18;;;9.40;99.90;;;;;;5093592;28;20032;-55
2024/01/25 11:40:18;;;;;;;16.15;4.28;;;9.60;99.90;;;;;;5078306;28;20073;-57
2024/01/25 11:42:49;;;;;;;23.08;3.42;;;9.50;99.90;;;;;;5099051;28;20107;-53
2024/01/25 11:45:15;;;;;;;29.95;4.07;;;9.50;99.90;;;;;;5096774;28;20472;-55
2024/01/25 11:47:42;;;;;;;30.75;5.07;;;9.60;99.90;;;;;;5109296;28;20487;-55
2024/01/25 11:50:10;;;;;;;30.70;5.10;;;9.60;99.90;;;;;;5116722;28;20036;-54
2024/01/25 11:52:36;;;;;;;;;;;9.50;99.90;;;;;;5103926;28;20450;-55
2024/01/25 11:55:07;;;;;;;24.65;3.88;;;9.50;99.90;;;;;;5096448;28;20034;-54
2024/01/25 11:57:35;;;;;;;30.73;4.45;;;9.50;99.90;;;;;;5116891;28;20352;-53
2024/01/25 12:00:01;;;;;;;28.10;4.28;;;9.40;99.90;;;;;;5109163;28;20028;-54
2024/01/25 12:02:27;;;;;;;31.98;4.45;;;9.40;99.90;;;;;;5096110;28;20028;-55
2024/01/25 12:04:55;;;;;;;26.83;4.18;;;9.40;99.90;;;;;;5096127;28;20499;-55
2024/01/25 12:07:21;;;;;;;15.60;3.97;;;9.50;99.90;;;;;;5094639;28;20488;-55
2024/01/25 12:10:04;;;;;;;26.90;5.20;;;9.50;99.90;;;;;;5100225;28;20084;-54
2024/01/25 12:12:30;;;;;;;26.35;6.38;;;9.60;99.90;;;;;;5116366;28;20062;-54
2024/01/25 12:14:59;;;;;;;25.08;4.63;;;9.60;99.90;;;;;;5115002;28;20094;-55
2024/01/25 12:17:29;;;;;;;38.67;5.30;;;9.60;99.90;;;;;;5116015;28;20496;-54
2024/01/25 12:19:56;;;;;;;34.70;5.40;;;9.60;99.90;;;;;;5105439;28;20027;-56
2024/01/25 12:22:22;;;;;;;25.63;5.28;;;9.50;99.90;;;;;;5103741;28;20035;-41
2024/01/25 12:24:48;;;;;;;30.08;5.10;;;9.60;99.90;;;;;;5102281;28;20020;-39
2024/01/25 12:27:15;;;;;;;25.02;4.68;;;9.60;99.90;;;;;;5115922;28;20028;-41
2024/01/25 12:29:43;;;;;;;32.90;7.53;;;9.70;99.90;;;;;;5095287;28;20059;-48
2024/01/25 12:32:09;;;;;;;26.30;5.30;;;9.70;99.90;;;;;;5096803;28;20440;-41
2024/01/25 12:34:34;;;;;;;32.78;6.15;;;9.70;99.90;;;;;;5115822;28;20352;-39
2024/01/25 12:37:00;;;;;;;23.60;4.53;;;9.70;99.90;;;;;;5115059;28;20058;-42
2024/01/25 12:39:26;;;;;;;26.08;5.78;;;9.70;99.90;;;;;;5113875;28;20020;-40
2024/01/25 12:41:51;;;;;;;33.67;5.93;;;9.70;99.90;;;;;;5115768;28;20077;-39
2024/01/25 12:44:17;;;;;;;22.55;4.50;;;9.70;99.90;;;;;;5114375;27;20024;-38